sensor_id;sensor_type;location;lat;lon;timestamp;temperature;humidity
47626;DHT22;33342;45.574;9.252;2022-08-30T00:02:25;29.60;99.90
47626;DHT22;33342;45.574;9.252;2022-08-30T00:04:53;29.60;99.90
47626;DHT22;33342;45.574;9.252;2022-08-30T00:07:21;29.60;99.90
47626;DHT22;33342;45.574;9.252;2022-08-30T00:09:48;29.60;99.90
47626;DHT22;33342;45.574;9.252;2022-08-30T00:12:15;29.60;99.90
47626;DHT22;33342;45.574;9.252;2022-08-30T00:14:42;29.60;99.90
47626;DHT22;33342;45.574;9.252;2022-08-30T00:17:10;29.60;99.90
47626;DHT22;33342;45.574;9.252;2022-08-30T00:19:37;29.60;99.90
47626;DHT22;33342;45.574;9.252;2022-08-30T00:22:05;29.50;99.90
47626;DHT22;33342;45.574;9.252;2022-08-30T00:24:32;29.50;99.90
47626;DHT22;33342;45.574;9.252;2022-08-30T00:26:59;29.50;99.90
47626;DHT22;33342;45.574;9.252;2022-08-30T00:29:27;29.50;99.90
47626;DHT22;33342;45.574;9.252;2022-08-30T00:31:54;29.50;99.90
47626;DHT22;33342;45.574;9.252;2022-08-30T00:34:21;29.50;99.90
47626;DHT22;33342;45.574;9.252;2022-08-30T00:36:48;29.50;99.90
47626;DHT22;33342;45.574;9.252;2022-08-30T00:39:15;29.40;99.90
47626;DHT22;33342;45.574;9.252;2022-08-30T00:41:42;29.40;99.90
47626;DHT22;33342;45.574;9.252;2022-08-30T00:44:10;29.40;99.90
47626;DHT22;33342;45.574;9.252;2022-08-30T00:46:37;29.40;99.90
47626;DHT22;33342;45.574;9.252;2022-08-30T00:49:07;29.40;99.90
47626;DHT22;33342;45.574;9.252;2022-08-30T00:51:36;29.40;99.90
47626;DHT22;33342;45.574;9.252;2022-08-30T00:54:03;29.30;99.90
47626;DHT22;33342;45.574;9.252;2022-08-30T00:56:31;29.30;99.90
47626;DHT22;33342;45.574;9.252;2022-08-30T00:59:01;29.30;99.90
47626;DHT22;33342;45.574;9.252;2022-08-30T01:01:32;29.30;99.90
47626;DHT22;33342;45.574;9.252;2022-08-30T01:04:00;29.30;99.90
47626;DHT22;33342;45.574;9.252;2022-08-30T01:06:28;29.30;99.90
47626;DHT22;33342;45.574;9.252;2022-08-30T01:09:00;29.30;99.90
47626;DHT22;33342;45.574;9.252;2022-08-30T01:11:27;29.30;99.90
47626;DHT22;33342;45.574;9.252;2022-08-30T01:13:55;29.30;99.90
47626;DHT22;33342;45.574;9.252;2022-08-30T01:16:24;29.30;99.90
47626;DHT22;33342;45.574;9.252;2022-08-30T01:18:56;29.20;99.90
47626;DHT22;33342;45.574;9.252;2022-08-30T01:21:41;29.20;99.90
47626;DHT22;33342;45.574;9.252;2022-08-30T01:24:11;29.20;99.90
47626;DHT22;33342;45.574;9.252;2022-08-30T01:26:39;29.20;99.90
47626;DHT22;33342;45.574;9.252;2022-08-30T01:29:10;29.20;99.90
47626;DHT22;33342;45.574;9.252;2022-08-30T01:31:39;29.20;99.90
47626;DHT22;33342;45.574;9.252;2022-08-30T01:34:07;29.10;99.90
47626;DHT22;33342;45.574;9.252;2022-08-30T01:36:38;29.10;99.90
47626;DHT22;33342;45.574;9.252;2022-08-30T01:39:13;29.20;99.90
47626;DHT22;33342;45.574;9.252;2022-08-30T01:41:40;29.10;99.90
47626;DHT22;33342;45.574;9.252;2022-08-30T01:44:11;29.10;99.90
47626;DHT22;33342;45.574;9.252;2022-08-30T01:46:46;29.10;99.90
47626;DHT22;33342;45.574;9.252;2022-08-30T01:49:16;29.10;99.90
47626;DHT22;33342;45.574;9.252;2022-08-30T01:51:52;29.00;99.90
47626;DHT22;33342;45.574;9.252;2022-08-30T01:54:29;29.00;99.90
47626;DHT22;33342;45.574;9.252;2022-08-30T01:57:06;29.00;99.90
47626;DHT22;33342;45.574;9.252;2022-08-30T01:59:34;29.00;99.90
47626;DHT22;33342;45.574;9.252;2022-08-30T02:02:03;29.00;99.90
47626;DHT22;33342;45.574;9.252;2022-08-30T02:04:30;29.00;99.90
47626;DHT22;33342;45.574;9.252;2022-08-30T02:06:57;29.00;99.90
47626;DHT22;33342;45.574;9.252;2022-08-30T02:09:25;28.90;99.90
47626;DHT22;33342;45.574;9.252;2022-08-30T02:11:52;28.90;99.90
47626;DHT22;33342;45.574;9.252;2022-08-30T02:14:19;28.90;99.90
47626;DHT22;33342;45.574;9.252;2022-08-30T02:16:47;28.90;99.90
47626;DHT22;33342;45.574;9.252;2022-08-30T02:19:15;28.90;99.90
47626;DHT22;33342;45.574;9.252;2022-08-30T02:21:42;28.80;99.90
47626;DHT22;33342;45.574;9.252;2022-08-30T02:24:09;28.80;99.90
47626;DHT22;33342;45.574;9.252;2022-08-30T02:26:36;28.80;99.90
47626;DHT22;33342;45.574;9.252;2022-08-30T02:29:06;28.80;99.90
47626;DHT22;33342;45.574;9.252;2022-08-30T02:31:34;28.80;99.90
47626;DHT22;33342;45.574;9.252;2022-08-30T02:34:01;28.70;99.90
47626;DHT22;33342;45.574;9.252;2022-08-30T02:36:31;28.70;99.90
47626;DHT22;33342;45.574;9.252;2022-08-30T02:38:58;28.70;99.90
47626;DHT22;33342;45.574;9.252;2022-08-30T02:41:25;28.70;99.90
47626;DHT22;33342;45.574;9.252;2022-08-30T02:43:54;28.60;99.90
47626;DHT22;33342;45.574;9.252;2022-08-30T02:46:26;28.60;99.90
47626;DHT22;33342;45.574;9.252;2022-08-30T02:48:59;28.60;99.90
47626;DHT22;33342;45.574;9.252;2022-08-30T02:51:49;28.60;99.90
47626;DHT22;33342;45.574;9.252;2022-08-30T02:54:16;28.60;99.90
47626;DHT22;33342;45.574;9.252;2022-08-30T02:56:46;28.60;99.90
47626;DHT22;33342;45.574;9.252;2022-08-30T02:59:15;28.60;99.90
47626;DHT22;33342;45.574;9.252;2022-08-30T03:01:43;28.50;99.90
47626;DHT22;33342;45.574;9.252;2022-08-30T03:04:13;28.50;99.90
47626;DHT22;33342;45.574;9.252;2022-08-30T03:06:40;28.50;99.90
47626;DHT22;33342;45.574;9.252;2022-08-30T03:09:07;28.60;99.90
47626;DHT22;33342;45.574;9.252;2022-08-30T03:11:35;28.50;99.90
47626;DHT22;33342;45.574;9.252;2022-08-30T03:14:03;28.50;99.90
47626;DHT22;33342;45.574;9.252;2022-08-30T03:16:30;28.50;99.90
47626;DHT22;33342;45.574;9.252;2022-08-30T03:18:57;28.50;99.90
47626;DHT22;33342;45.574;9.252;2022-08-30T03:21:24;28.50;99.90
47626;DHT22;33342;45.574;9.252;2022-08-30T03:23:52;28.50;99.90
47626;DHT22;33342;45.574;9.252;2022-08-30T03:26:19;28.50;99.90
47626;DHT22;33342;45.574;9.252;2022-08-30T03:28:46;28.50;99.90
47626;DHT22;33342;45.574;9.252;2022-08-30T03:31:13;28.40;99.90
47626;DHT22;33342;45.574;9.252;2022-08-30T03:33:40;28.50;99.90
47626;DHT22;33342;45.574;9.252;2022-08-30T03:36:08;28.40;99.90
47626;DHT22;33342;45.574;9.252;2022-08-30T03:38:35;28.50;99.90
47626;DHT22;33342;45.574;9.252;2022-08-30T03:41:02;28.40;99.90
47626;DHT22;33342;45.574;9.252;2022-08-30T03:43:32;28.40;99.90
47626;DHT22;33342;45.574;9.252;2022-08-30T03:46:00;28.40;99.90
47626;DHT22;33342;45.574;9.252;2022-08-30T03:48:28;28.40;99.90
47626;DHT22;33342;45.574;9.252;2022-08-30T03:50:56;28.40;99.90
47626;DHT22;33342;45.574;9.252;2022-08-30T03:53:25;28.40;99.90
47626;DHT22;33342;45.574;9.252;2022-08-30T03:55:53;28.30;99.90
47626;DHT22;33342;45.574;9.252;2022-08-30T03:58:23;28.40;99.90
47626;DHT22;33342;45.574;9.252;2022-08-30T04:00:50;28.30;99.90
47626;DHT22;33342;45.574;9.252;2022-08-30T04:03:17;28.30;99.90
47626;DHT22;33342;45.574;9.252;2022-08-30T04:05:44;28.30;99.90
47626;DHT22;33342;45.574;9.252;2022-08-30T04:08:11;28.30;99.90
47626;DHT22;33342;45.574;9.252;2022-08-30T04:10:38;28.40;99.90
47626;DHT22;33342;45.574;9.252;2022-08-30T04:13:05;28.30;99.90
47626;DHT22;33342;45.574;9.252;2022-08-30T04:15:33;28.30;99.90
47626;DHT22;33342;45.574;9.252;2022-08-30T04:18:00;28.30;99.90
47626;DHT22;33342;45.574;9.252;2022-08-30T04:20:27;28.30;99.90
47626;DHT22;33342;45.574;9.252;2022-08-30T04:22:54;28.30;99.90
47626;DHT22;33342;45.574;9.252;2022-08-30T04:25:21;28.30;99.90
47626;DHT22;33342;45.574;9.252;2022-08-30T04:27:49;28.30;99.90
47626;DHT22;33342;45.574;9.252;2022-08-30T04:30:16;28.30;99.90
47626;DHT22;33342;45.574;9.252;2022-08-30T04:32:44;28.30;99.90
47626;DHT22;33342;45.574;9.252;2022-08-30T04:35:12;28.20;99.90
47626;DHT22;33342;45.574;9.252;2022-08-30T04:37:39;28.30;99.90
47626;DHT22;33342;45.574;9.252;2022-08-30T04:40:08;28.30;99.90
47626;DHT22;33342;45.574;9.252;2022-08-30T04:42:36;28.30;99.90
47626;DHT22;33342;45.574;9.252;2022-08-30T04:45:06;28.20;99.90
47626;DHT22;33342;45.574;9.252;2022-08-30T04:47:35;28.20;99.90
47626;DHT22;33342;45.574;9.252;2022-08-30T04:50:02;28.20;99.90
47626;DHT22;33342;45.574;9.252;2022-08-30T04:52:29;28.20;99.90
47626;DHT22;33342;45.574;9.252;2022-08-30T04:54:57;28.20;99.90
47626;DHT22;33342;45.574;9.252;2022-08-30T04:57:26;28.20;99.90
47626;DHT22;33342;45.574;9.252;2022-08-30T04:59:53;28.20;99.90
47626;DHT22;33342;45.574;9.252;2022-08-30T05:02:21;28.20;99.90
47626;DHT22;33342;45.574;9.252;2022-08-30T05:04:48;28.10;99.90
47626;DHT22;33342;45.574;9.252;2022-08-30T05:07:34;28.10;99.90
47626;DHT22;33342;45.574;9.252;2022-08-30T05:10:02;28.10;99.90
47626;DHT22;33342;45.574;9.252;2022-08-30T05:12:36;28.10;99.90
47626;DHT22;33342;45.574;9.252;2022-08-30T05:15:04;28.10;99.90
47626;DHT22;33342;45.574;9.252;2022-08-30T05:17:50;28.10;99.90
47626;DHT22;33342;45.574;9.252;2022-08-30T05:20:18;28.10;99.90
47626;DHT22;33342;45.574;9.252;2022-08-30T05:22:45;28.10;99.90
47626;DHT22;33342;45.574;9.252;2022-08-30T05:25:25;28.10;99.90
47626;DHT22;33342;45.574;9.252;2022-08-30T05:27:53;28.10;99.90
47626;DHT22;33342;45.574;9.252;2022-08-30T05:30:21;28.10;99.90
47626;DHT22;33342;45.574;9.252;2022-08-30T05:32:49;28.10;99.90
47626;DHT22;33342;45.574;9.252;2022-08-30T05:35:17;28.10;99.90
47626;DHT22;33342;45.574;9.252;2022-08-30T05:37:51;28.10;99.90
47626;DHT22;33342;45.574;9.252;2022-08-30T05:40:19;28.10;99.90
47626;DHT22;33342;45.574;9.252;2022-08-30T05:42:46;28.10;99.90
47626;DHT22;33342;45.574;9.252;2022-08-30T05:45:14;28.20;99.90
47626;DHT22;33342;45.574;9.252;2022-08-30T05:47:41;28.20;99.90
47626;DHT22;33342;45.574;9.252;2022-08-30T05:50:09;28.20;99.90
47626;DHT22;33342;45.574;9.252;2022-08-30T05:52:38;28.20;99.90
47626;DHT22;33342;45.574;9.252;2022-08-30T05:55:07;28.20;99.90
47626;DHT22;33342;45.574;9.252;2022-08-30T05:57:35;28.20;99.90
47626;DHT22;33342;45.574;9.252;2022-08-30T06:00:09;28.20;99.90
47626;DHT22;33342;45.574;9.252;2022-08-30T06:02:40;28.20;99.90
47626;DHT22;33342;45.574;9.252;2022-08-30T06:05:09;28.30;99.90
47626;DHT22;33342;45.574;9.252;2022-08-30T06:07:41;28.30;99.90
47626;DHT22;33342;45.574;9.252;2022-08-30T06:10:08;28.30;99.90
47626;DHT22;33342;45.574;9.252;2022-08-30T06:12:35;28.40;99.90
47626;DHT22;33342;45.574;9.252;2022-08-30T06:15:03;28.40;99.90
47626;DHT22;33342;45.574;9.252;2022-08-30T06:17:30;28.40;99.90
47626;DHT22;33342;45.574;9.252;2022-08-30T06:19:57;28.40;99.90
47626;DHT22;33342;45.574;9.252;2022-08-30T06:22:24;28.40;99.90
47626;DHT22;33342;45.574;9.252;2022-08-30T06:24:51;28.40;99.90
47626;DHT22;33342;45.574;9.252;2022-08-30T06:27:25;28.50;99.90
47626;DHT22;33342;45.574;9.252;2022-08-30T06:29:52;28.50;99.90
47626;DHT22;33342;45.574;9.252;2022-08-30T06:32:20;28.50;99.90
47626;DHT22;33342;45.574;9.252;2022-08-30T06:34:48;28.60;99.90
47626;DHT22;33342;45.574;9.252;2022-08-30T06:37:15;28.60;99.90
47626;DHT22;33342;45.574;9.252;2022-08-30T06:39:56;28.60;99.90
47626;DHT22;33342;45.574;9.252;2022-08-30T06:42:24;28.60;99.90
47626;DHT22;33342;45.574;9.252;2022-08-30T06:45:01;28.70;99.90
47626;DHT22;33342;45.574;9.252;2022-08-30T06:47:37;28.60;99.90
47626;DHT22;33342;45.574;9.252;2022-08-30T06:50:05;28.70;99.90
47626;DHT22;33342;45.574;9.252;2022-08-30T06:52:42;28.70;99.90
47626;DHT22;33342;45.574;9.252;2022-08-30T06:55:11;28.70;99.90
47626;DHT22;33342;45.574;9.252;2022-08-30T06:57:39;28.70;99.90
47626;DHT22;33342;45.574;9.252;2022-08-30T07:00:08;28.70;99.90
47626;DHT22;33342;45.574;9.252;2022-08-30T07:02:37;28.80;99.90
47626;DHT22;33342;45.574;9.252;2022-08-30T07:05:05;28.80;99.90
47626;DHT22;33342;45.574;9.252;2022-08-30T07:07:34;28.80;99.90
47626;DHT22;33342;45.574;9.252;2022-08-30T07:10:03;28.80;99.90
47626;DHT22;33342;45.574;9.252;2022-08-30T07:12:31;28.80;99.90
47626;DHT22;33342;45.574;9.252;2022-08-30T07:14:58;28.80;99.90
47626;DHT22;33342;45.574;9.252;2022-08-30T07:17:25;28.80;99.90
47626;DHT22;33342;45.574;9.252;2022-08-30T07:20:11;28.90;99.90
47626;DHT22;33342;45.574;9.252;2022-08-30T07:22:39;28.80;99.90
47626;DHT22;33342;45.574;9.252;2022-08-30T07:25:06;28.80;99.90
47626;DHT22;33342;45.574;9.252;2022-08-30T07:27:34;28.90;99.90
47626;DHT22;33342;45.574;9.252;2022-08-30T07:30:01;28.90;99.90
47626;DHT22;33342;45.574;9.252;2022-08-30T07:32:30;28.90;99.90
47626;DHT22;33342;45.574;9.252;2022-08-30T07:35:00;29.00;99.90
47626;DHT22;33342;45.574;9.252;2022-08-30T07:37:27;29.00;99.90
47626;DHT22;33342;45.574;9.252;2022-08-30T07:39:57;29.10;99.90
47626;DHT22;33342;45.574;9.252;2022-08-30T07:42:24;29.10;99.90
47626;DHT22;33342;45.574;9.252;2022-08-30T07:44:51;29.10;99.90
47626;DHT22;33342;45.574;9.252;2022-08-30T07:47:22;29.10;99.90
47626;DHT22;33342;45.574;9.252;2022-08-30T07:49:49;29.20;99.90
47626;DHT22;33342;45.574;9.252;2022-08-30T07:52:16;29.20;99.90
47626;DHT22;33342;45.574;9.252;2022-08-30T07:54:43;29.20;99.90
47626;DHT22;33342;45.574;9.252;2022-08-30T07:57:11;29.20;99.90
47626;DHT22;33342;45.574;9.252;2022-08-30T07:59:41;29.20;99.90
47626;DHT22;33342;45.574;9.252;2022-08-30T08:02:08;29.30;99.90
47626;DHT22;33342;45.574;9.252;2022-08-30T08:04:36;29.30;99.90
47626;DHT22;33342;45.574;9.252;2022-08-30T08:07:03;29.30;99.90
47626;DHT22;33342;45.574;9.252;2022-08-30T08:09:32;29.30;99.90
47626;DHT22;33342;45.574;9.252;2022-08-30T08:12:00;29.30;99.90
47626;DHT22;33342;45.574;9.252;2022-08-30T08:14:27;29.40;99.90
47626;DHT22;33342;45.574;9.252;2022-08-30T08:16:55;29.40;99.90
47626;DHT22;33342;45.574;9.252;2022-08-30T08:19:22;29.40;99.90
47626;DHT22;33342;45.574;9.252;2022-08-30T08:21:49;29.40;99.90
47626;DHT22;33342;45.574;9.252;2022-08-30T08:24:36;29.40;99.90
47626;DHT22;33342;45.574;9.252;2022-08-30T08:27:03;29.50;99.90
47626;DHT22;33342;45.574;9.252;2022-08-30T08:29:30;29.50;99.90
47626;DHT22;33342;45.574;9.252;2022-08-30T08:31:58;29.50;99.90
47626;DHT22;33342;45.574;9.252;2022-08-30T08:34:26;29.60;99.90
47626;DHT22;33342;45.574;9.252;2022-08-30T08:36:53;29.60;99.90
47626;DHT22;33342;45.574;9.252;2022-08-30T08:39:21;29.60;99.90
47626;DHT22;33342;45.574;9.252;2022-08-30T08:45:02;29.70;99.90
47626;DHT22;33342;45.574;9.252;2022-08-30T08:50:07;29.80;99.90
47626;DHT22;33342;45.574;9.252;2022-08-30T08:55:29;29.80;99.90
47626;DHT22;33342;45.574;9.252;2022-08-30T08:57:56;29.80;99.90
47626;DHT22;33342;45.574;9.252;2022-08-30T09:00:24;29.80;99.90
47626;DHT22;33342;45.574;9.252;2022-08-30T09:03:00;29.80;99.90
47626;DHT22;33342;45.574;9.252;2022-08-30T09:05:34;29.80;99.90
47626;DHT22;33342;45.574;9.252;2022-08-30T09:08:05;29.80;99.90
47626;DHT22;33342;45.574;9.252;2022-08-30T09:10:37;29.70;99.90
47626;DHT22;33342;45.574;9.252;2022-08-30T09:13:18;29.70;99.90
47626;DHT22;33342;45.574;9.252;2022-08-30T09:15:50;29.60;99.90
47626;DHT22;33342;45.574;9.252;2022-08-30T09:18:50;29.60;99.90
47626;DHT22;33342;45.574;9.252;2022-08-30T09:21:37;29.50;99.90
47626;DHT22;33342;45.574;9.252;2022-08-30T09:24:05;29.50;99.90
47626;DHT22;33342;45.574;9.252;2022-08-30T09:26:37;29.50;99.90
47626;DHT22;33342;45.574;9.252;2022-08-30T09:29:15;29.40;99.90
47626;DHT22;33342;45.574;9.252;2022-08-30T09:31:51;29.40;99.90
47626;DHT22;33342;45.574;9.252;2022-08-30T09:34:42;29.30;99.90
47626;DHT22;33342;45.574;9.252;2022-08-30T09:37:23;29.30;99.90
47626;DHT22;33342;45.574;9.252;2022-08-30T09:39:51;29.30;99.90
47626;DHT22;33342;45.574;9.252;2022-08-30T09:42:22;29.30;99.90
47626;DHT22;33342;45.574;9.252;2022-08-30T09:44:54;29.30;99.90
47626;DHT22;33342;45.574;9.252;2022-08-30T09:47:42;29.20;99.90
47626;DHT22;33342;45.574;9.252;2022-08-30T09:50:15;29.20;99.90
47626;DHT22;33342;45.574;9.252;2022-08-30T09:53:06;29.20;99.90
47626;DHT22;33342;45.574;9.252;2022-08-30T10:01:45;29.20;99.90
47626;DHT22;33342;45.574;9.252;2022-08-30T10:04:18;29.10;99.90
47626;DHT22;33342;45.574;9.252;2022-08-30T10:06:54;29.10;99.90
47626;DHT22;33342;45.574;9.252;2022-08-30T10:17:40;29.00;99.90
47626;DHT22;33342;45.574;9.252;2022-08-30T10:20:32;29.00;99.90
47626;DHT22;33342;45.574;9.252;2022-08-30T10:23:10;29.00;99.90
47626;DHT22;33342;45.574;9.252;2022-08-30T10:25:47;29.00;99.90
47626;DHT22;33342;45.574;9.252;2022-08-30T10:28:25;28.90;99.90
47626;DHT22;33342;45.574;9.252;2022-08-30T10:31:06;28.90;99.90
47626;DHT22;33342;45.574;9.252;2022-08-30T10:33:47;28.90;99.90
47626;DHT22;33342;45.574;9.252;2022-08-30T10:36:27;28.90;99.90
47626;DHT22;33342;45.574;9.252;2022-08-30T10:38:57;28.90;99.90
47626;DHT22;33342;45.574;9.252;2022-08-30T10:44:41;28.90;99.90
47626;DHT22;33342;45.574;9.252;2022-08-30T10:50:06;28.90;99.90
47626;DHT22;33342;45.574;9.252;2022-08-30T10:52:41;28.90;99.90
47626;DHT22;33342;45.574;9.252;2022-08-30T10:55:19;29.00;99.90
47626;DHT22;33342;45.574;9.252;2022-08-30T10:57:48;28.90;99.90
47626;DHT22;33342;45.574;9.252;2022-08-30T11:00:29;28.90;99.90
47626;DHT22;33342;45.574;9.252;2022-08-30T11:06:13;28.80;99.90
47626;DHT22;33342;45.574;9.252;2022-08-30T11:14:28;29.00;99.90
47626;DHT22;33342;45.574;9.252;2022-08-30T11:16:58;29.00;99.90
47626;DHT22;33342;45.574;9.252;2022-08-30T11:19:37;29.00;99.90
47626;DHT22;33342;45.574;9.252;2022-08-30T11:22:15;29.00;99.90
47626;DHT22;33342;45.574;9.252;2022-08-30T11:25:03;29.00;99.90
47626;DHT22;33342;45.574;9.252;2022-08-30T11:35:43;28.90;99.90
47626;DHT22;33342;45.574;9.252;2022-08-30T11:49:00;28.70;99.90
47626;DHT22;33342;45.574;9.252;2022-08-30T11:51:33;28.60;99.90
47626;DHT22;33342;45.574;9.252;2022-08-30T11:54:24;28.60;99.90
47626;DHT22;33342;45.574;9.252;2022-08-30T11:57:15;28.50;99.90
47626;DHT22;33342;45.574;9.252;2022-08-30T12:00:50;28.50;99.90
47626;DHT22;33342;45.574;9.252;2022-08-30T12:18:55;28.60;99.90
47626;DHT22;33342;45.574;9.252;2022-08-30T12:21:32;28.80;99.90
47626;DHT22;33342;45.574;9.252;2022-08-30T12:24:25;28.80;99.90
47626;DHT22;33342;45.574;9.252;2022-08-30T12:26:54;28.80;99.90
47626;DHT22;33342;45.574;9.252;2022-08-30T12:29:24;28.80;99.90
47626;DHT22;33342;45.574;9.252;2022-08-30T12:31:52;28.80;99.90
47626;DHT22;33342;45.574;9.252;2022-08-30T12:37:23;28.90;99.90
47626;DHT22;33342;45.574;9.252;2022-08-30T12:40:08;28.90;99.90
47626;DHT22;33342;45.574;9.252;2022-08-30T12:42:38;28.90;99.90
47626;DHT22;33342;45.574;9.252;2022-08-30T12:45:13;28.90;99.90
47626;DHT22;33342;45.574;9.252;2022-08-30T12:47:47;28.90;99.90
47626;DHT22;33342;45.574;9.252;2022-08-30T12:50:21;29.00;99.90
47626;DHT22;33342;45.574;9.252;2022-08-30T12:52:59;29.10;99.90
47626;DHT22;33342;45.574;9.252;2022-08-30T12:55:33;29.10;99.90
47626;DHT22;33342;45.574;9.252;2022-08-30T12:58:09;29.20;99.90
47626;DHT22;33342;45.574;9.252;2022-08-30T13:00:41;29.20;99.90
47626;DHT22;33342;45.574;9.252;2022-08-30T13:05:56;29.40;99.90
47626;DHT22;33342;45.574;9.252;2022-08-30T13:13:41;29.50;99.90
47626;DHT22;33342;45.574;9.252;2022-08-30T13:18:44;29.80;99.90
47626;DHT22;33342;45.574;9.252;2022-08-30T13:21:34;29.80;99.90
47626;DHT22;33342;45.574;9.252;2022-08-30T13:24:03;30.00;99.90
47626;DHT22;33342;45.574;9.252;2022-08-30T13:26:33;30.00;99.90
47626;DHT22;33342;45.574;9.252;2022-08-30T13:29:04;30.10;99.90
47626;DHT22;33342;45.574;9.252;2022-08-30T13:31:36;30.10;99.90
47626;DHT22;33342;45.574;9.252;2022-08-30T13:34:03;30.20;99.90
47626;DHT22;33342;45.574;9.252;2022-08-30T13:36:35;30.20;99.90
47626;DHT22;33342;45.574;9.252;2022-08-30T13:39:04;30.30;99.90
47626;DHT22;33342;45.574;9.252;2022-08-30T13:41:31;30.30;99.90
47626;DHT22;33342;45.574;9.252;2022-08-30T13:44:00;30.40;99.90
47626;DHT22;33342;45.574;9.252;2022-08-30T13:46:41;30.50;99.90
47626;DHT22;33342;45.574;9.252;2022-08-30T13:49:28;30.60;99.90
47626;DHT22;33342;45.574;9.252;2022-08-30T13:52:17;30.60;99.90
47626;DHT22;33342;45.574;9.252;2022-08-30T13:54:52;30.70;99.90
47626;DHT22;33342;45.574;9.252;2022-08-30T13:57:21;30.70;99.90
47626;DHT22;33342;45.574;9.252;2022-08-30T14:00:13;30.80;99.90
47626;DHT22;33342;45.574;9.252;2022-08-30T14:02:44;30.90;99.90
47626;DHT22;33342;45.574;9.252;2022-08-30T14:05:17;30.90;99.90
47626;DHT22;33342;45.574;9.252;2022-08-30T14:08:05;31.00;99.90
47626;DHT22;33342;45.574;9.252;2022-08-30T14:10:55;31.00;99.90
47626;DHT22;33342;45.574;9.252;2022-08-30T14:13:24;31.10;99.90
47626;DHT22;33342;45.574;9.252;2022-08-30T14:15:56;31.20;99.90
47626;DHT22;33342;45.574;9.252;2022-08-30T14:18:45;31.20;99.90
47626;DHT22;33342;45.574;9.252;2022-08-30T14:21:12;31.30;99.90
47626;DHT22;33342;45.574;9.252;2022-08-30T14:23:42;31.50;99.90
47626;DHT22;33342;45.574;9.252;2022-08-30T14:26:17;31.50;99.90
47626;DHT22;33342;45.574;9.252;2022-08-30T14:28:44;31.60;99.90
47626;DHT22;33342;45.574;9.252;2022-08-30T14:31:17;31.70;99.90
47626;DHT22;33342;45.574;9.252;2022-08-30T14:33:46;31.80;99.90
47626;DHT22;33342;45.574;9.252;2022-08-30T14:36:15;31.90;99.90
47626;DHT22;33342;45.574;9.252;2022-08-30T14:38:42;31.90;99.90
47626;DHT22;33342;45.574;9.252;2022-08-30T14:41:10;31.90;99.90
47626;DHT22;33342;45.574;9.252;2022-08-30T14:43:41;32.00;99.90
47626;DHT22;33342;45.574;9.252;2022-08-30T14:46:27;32.10;99.90
47626;DHT22;33342;45.574;9.252;2022-08-30T14:48:55;32.30;99.90
47626;DHT22;33342;45.574;9.252;2022-08-30T14:51:22;32.40;99.90
47626;DHT22;33342;45.574;9.252;2022-08-30T14:53:51;32.60;99.90
47626;DHT22;33342;45.574;9.252;2022-08-30T14:56:21;32.70;99.90
47626;DHT22;33342;45.574;9.252;2022-08-30T14:58:50;32.90;99.90
47626;DHT22;33342;45.574;9.252;2022-08-30T15:01:19;33.00;99.90
47626;DHT22;33342;45.574;9.252;2022-08-30T15:03:47;33.20;99.90
47626;DHT22;33342;45.574;9.252;2022-08-30T15:06:17;33.40;99.90
47626;DHT22;33342;45.574;9.252;2022-08-30T15:08:46;33.60;99.90
47626;DHT22;33342;45.574;9.252;2022-08-30T15:11:16;34.10;99.90
47626;DHT22;33342;45.574;9.252;2022-08-30T15:13:44;34.70;99.90
47626;DHT22;33342;45.574;9.252;2022-08-30T15:16:23;35.10;99.90
47626;DHT22;33342;45.574;9.252;2022-08-30T15:18:51;35.20;99.90
47626;DHT22;33342;45.574;9.252;2022-08-30T15:21:27;35.10;99.90
47626;DHT22;33342;45.574;9.252;2022-08-30T15:23:57;34.90;99.90
47626;DHT22;33342;45.574;9.252;2022-08-30T15:26:27;34.70;99.90
47626;DHT22;33342;45.574;9.252;2022-08-30T15:28:55;34.40;99.90
47626;DHT22;33342;45.574;9.252;2022-08-30T15:31:25;34.50;99.90
47626;DHT22;33342;45.574;9.252;2022-08-30T15:33:54;34.90;99.90
47626;DHT22;33342;45.574;9.252;2022-08-30T15:36:23;35.10;99.90
47626;DHT22;33342;45.574;9.252;2022-08-30T15:38:54;35.50;99.90
47626;DHT22;33342;45.574;9.252;2022-08-30T15:41:22;36.10;99.90
47626;DHT22;33342;45.574;9.252;2022-08-30T15:43:49;36.50;99.90
47626;DHT22;33342;45.574;9.252;2022-08-30T15:46:28;36.70;99.90
47626;DHT22;33342;45.574;9.252;2022-08-30T15:49:00;36.80;99.90
47626;DHT22;33342;45.574;9.252;2022-08-30T15:51:30;36.60;99.90
47626;DHT22;33342;45.574;9.252;2022-08-30T15:54:12;36.40;99.90
47626;DHT22;33342;45.574;9.252;2022-08-30T15:56:42;36.00;99.90
47626;DHT22;33342;45.574;9.252;2022-08-30T15:59:13;35.70;99.90
47626;DHT22;33342;45.574;9.252;2022-08-30T16:01:42;35.30;99.90
47626;DHT22;33342;45.574;9.252;2022-08-30T16:04:10;35.10;99.90
47626;DHT22;33342;45.574;9.252;2022-08-30T16:06:37;34.90;99.90
47626;DHT22;33342;45.574;9.252;2022-08-30T16:09:06;34.90;99.90
47626;DHT22;33342;45.574;9.252;2022-08-30T16:11:34;34.90;99.90
47626;DHT22;33342;45.574;9.252;2022-08-30T16:14:02;35.10;99.90
47626;DHT22;33342;45.574;9.252;2022-08-30T16:16:29;35.40;99.90
47626;DHT22;33342;45.574;9.252;2022-08-30T16:18:58;35.70;99.90
47626;DHT22;33342;45.574;9.252;2022-08-30T16:21:28;35.70;99.90
47626;DHT22;33342;45.574;9.252;2022-08-30T16:23:58;35.40;99.90
47626;DHT22;33342;45.574;9.252;2022-08-30T16:26:27;35.00;99.90
47626;DHT22;33342;45.574;9.252;2022-08-30T16:28:54;34.50;99.90
47626;DHT22;33342;45.574;9.252;2022-08-30T16:31:22;34.10;99.90
47626;DHT22;33342;45.574;9.252;2022-08-30T16:33:52;33.80;99.90
47626;DHT22;33342;45.574;9.252;2022-08-30T16:36:21;33.60;99.90
47626;DHT22;33342;45.574;9.252;2022-08-30T16:38:49;33.30;99.90
47626;DHT22;33342;45.574;9.252;2022-08-30T16:41:23;33.20;99.90
47626;DHT22;33342;45.574;9.252;2022-08-30T16:43:50;33.10;99.90
47626;DHT22;33342;45.574;9.252;2022-08-30T16:46:21;33.00;99.90
47626;DHT22;33342;45.574;9.252;2022-08-30T16:48:56;32.80;99.90
47626;DHT22;33342;45.574;9.252;2022-08-30T16:51:27;32.70;99.90
47626;DHT22;33342;45.574;9.252;2022-08-30T16:53:56;32.70;99.90
47626;DHT22;33342;45.574;9.252;2022-08-30T16:56:26;32.70;99.90
47626;DHT22;33342;45.574;9.252;2022-08-30T16:58:57;32.80;99.90
47626;DHT22;33342;45.574;9.252;2022-08-30T17:01:33;32.80;99.90
47626;DHT22;33342;45.574;9.252;2022-08-30T17:04:04;32.70;99.90
47626;DHT22;33342;45.574;9.252;2022-08-30T17:06:32;32.60;99.90
47626;DHT22;33342;45.574;9.252;2022-08-30T17:09:05;32.60;99.90
47626;DHT22;33342;45.574;9.252;2022-08-30T17:11:34;32.50;99.90
47626;DHT22;33342;45.574;9.252;2022-08-30T17:14:03;32.30;99.90
47626;DHT22;33342;45.574;9.252;2022-08-30T17:16:30;32.20;99.90
47626;DHT22;33342;45.574;9.252;2022-08-30T17:18:59;32.10;99.90
47626;DHT22;33342;45.574;9.252;2022-08-30T17:21:30;32.00;99.90